Time;durP1;ratioP1;P1;durP2;ratioP2;P2;SDS_P1;SDS_P2;PMS_P1;PMS_P2;Temp;Humidity;BMP_temperature;BMP_pressure;BME280_temperature;BME280_humidity;BME280_pressure;Samples;Min_cycle;Max_cycle;Signal;HPM_P1;HPM_P2
2021/09/29 00:00:40;;;;;;;9.55;8.02;;;11.80;99.90;;;;;;5025636;28;20027;-75
2021/09/29 00:03:06;;;;;;;8.50;6.95;;;11.90;99.90;;;;;;5039153;28;20049;-75
2021/09/29 00:05:32;;;;;;;7.20;6.47;;;12.00;99.90;;;;;;5025430;28;20029;-75
2021/09/29 00:07:57;;;;;;;8.70;7.07;;;12.20;99.90;;;;;;5028810;28;20088;-74
2021/09/29 00:10:23;;;;;;;10.10;8.32;;;12.20;99.90;;;;;;5025541;28;20029;-76
2021/09/29 00:12:49;;;;;;;10.75;7.93;;;12.30;99.90;;;;;;5039723;28;20021;-75
2021/09/29 00:15:15;;;;;;;10.38;7.78;;;12.20;99.90;;;;;;5042992;28;20037;-76
2021/09/29 00:17:42;;;;;;;10.38;8.55;;;12.20;99.90;;;;;;5028753;28;20082;-75
2021/09/29 00:20:09;;;;;;;10.57;8.02;;;12.30;99.90;;;;;;5043323;28;20021;-74
2021/09/29 00:22:35;;;;;;;9.45;8.43;;;12.20;99.90;;;;;;5039450;28;20564;-73
2021/09/29 00:25:01;;;;;;;10.68;8.60;;;12.10;99.90;;;;;;5024795;28;20029;-73
2021/09/29 00:27:26;;;;;;;10.48;8.48;;;12.00;99.90;;;;;;5046170;28;20025;-73
2021/09/29 00:29:54;;;;;;;11.75;8.52;;;12.00;99.90;;;;;;5043192;28;20104;-72
2021/09/29 00:32:20;;;;;;;10.55;8.10;;;12.10;99.90;;;;;;5039081;28;20031;-73
2021/09/29 00:34:46;;;;;;;10.43;8.13;;;12.20;99.90;;;;;;5024352;28;20506;-73
2021/09/29 00:37:11;;;;;;;9.93;8.23;;;12.10;99.90;;;;;;5049971;28;20032;-73
2021/09/29 00:39:37;;;;;;;11.52;7.68;;;12.10;99.90;;;;;;5042687;28;20025;-73
2021/09/29 00:42:03;;;;;;;9.40;7.65;;;12.20;99.90;;;;;;5028264;28;20033;-74
2021/09/29 00:44:29;;;;;;;9.43;7.63;;;12.10;99.90;;;;;;5032520;28;20104;-73
2021/09/29 00:46:55;;;;;;;9.35;8.10;;;12.10;99.90;;;;;;5028280;28;20049;-73
2021/09/29 00:49:20;;;;;;;9.13;7.47;;;12.10;99.90;;;;;;5042787;28;20537;-74
2021/09/29 00:51:46;;;;;;;11.00;7.72;;;11.90;99.90;;;;;;5021034;28;20025;-74
2021/09/29 00:54:11;;;;;;;11.57;7.85;;;11.90;99.90;;;;;;5042516;28;20034;-74
2021/09/29 00:56:37;;;;;;;10.23;8.05;;;12.00;99.90;;;;;;5046055;28;20034;-74
2021/09/29 00:59:03;;;;;;;10.98;8.13;;;12.00;99.90;;;;;;5032452;28;20021;-74
2021/09/29 01:01:29;;;;;;;9.35;8.13;;;12.10;99.90;;;;;;5045427;28;20491;-74
2021/09/29 01:03:56;;;;;;;11.05;8.32;;;12.10;99.90;;;;;;5041963;28;20029;-73
2021/09/29 01:06:24;;;;;;;9.48;7.68;;;12.10;99.90;;;;;;5038914;28;20463;-74
2021/09/29 01:09:01;;;;;;;9.40;7.72;;;12.20;99.90;;;;;;5041929;28;20056;-75
2021/09/29 01:11:51;;;;;;;11.57;7.95;;;12.10;99.90;;;;;;5050413;28;20174;-75
2021/09/29 01:14:28;;;;;;;9.00;7.57;;;12.20;99.90;;;;;;5018927;28;20036;-75
2021/09/29 01:16:57;;;;;;;12.40;8.25;;;12.20;99.90;;;;;;5032158;28;20052;-75
2021/09/29 01:20:00;;;;;;;9.57;8.00;;;12.30;99.90;;;;;;5027647;28;20025;-74
2021/09/29 01:22:51;;;;;;;10.45;8.32;;;12.10;99.90;;;;;;5027379;28;20032;-74
2021/09/29 01:25:38;;;;;;;10.40;8.45;;;12.00;99.90;;;;;;5014333;28;20033;-75
2021/09/29 01:28:05;;;;;;;10.45;7.50;;;11.90;99.90;;;;;;5040068;28;20028;-75
2021/09/29 01:30:33;;;;;;;11.02;7.25;;;11.90;99.90;;;;;;5038268;28;20033;-75
2021/09/29 01:32:59;;;;;;;12.40;7.60;;;12.10;99.90;;;;;;5043503;28;20025;-75
2021/09/29 01:35:25;;;;;;;10.80;8.23;;;12.10;99.90;;;;;;5045149;28;20025;-76
2021/09/29 01:37:51;;;;;;;10.10;8.68;;;12.10;99.90;;;;;;5040324;28;20031;-75
2021/09/29 01:40:17;;;;;;;12.93;9.55;;;12.10;99.90;;;;;;5018800;28;20026;-74
2021/09/29 01:42:43;;;;;;;11.10;8.80;;;12.00;99.90;;;;;;5022333;28;20450;-74
2021/09/29 01:45:09;;;;;;;9.80;8.40;;;12.10;99.90;;;;;;5018251;28;20025;-75
2021/09/29 01:47:35;;;;;;;9.07;7.38;;;12.10;99.90;;;;;;5023124;28;20040;-76
2021/09/29 01:50:03;;;;;;;12.52;9.10;;;12.30;99.90;;;;;;5020630;28;20148;-75
2021/09/29 01:52:31;;;;;;;10.38;8.13;;;12.40;99.90;;;;;;5024470;28;20033;-75
2021/09/29 01:54:59;;;;;;;12.35;8.57;;;12.30;99.90;;;;;;5023469;28;20048;-75
2021/09/29 01:57:25;;;;;;;11.07;8.13;;;12.40;99.90;;;;;;5042851;28;20537;-76
2021/09/29 01:59:51;;;;;;;8.13;7.03;;;12.50;99.90;;;;;;5020405;28;20025;-74
2021/09/29 02:02:16;;;;;;;10.15;8.23;;;12.60;99.90;;;;;;5041574;28;20044;-75
2021/09/29 02:04:50;;;;;;;9.00;8.10;;;12.60;99.90;;;;;;5030430;28;20029;-77
2021/09/29 02:07:17;;;;;;;11.85;8.85;;;12.50;99.90;;;;;;5023343;28;20025;-76
2021/09/29 02:09:43;;;;;;;10.63;7.72;;;12.50;99.90;;;;;;5020048;28;20033;-77
2021/09/29 02:12:09;;;;;;;9.40;7.85;;;12.20;99.90;;;;;;5040593;28;20022;-76
2021/09/29 02:14:35;;;;;;;12.30;7.75;;;12.00;99.90;;;;;;5045003;28;20506;-76
2021/09/29 02:17:00;;;;;;;12.02;8.38;;;12.00;99.90;;;;;;5041932;28;20025;-76
2021/09/29 02:19:27;;;;;;;12.00;8.60;;;11.90;99.90;;;;;;5020288;28;20159;-76
2021/09/29 02:21:54;;;;;;;10.88;8.30;;;11.90;99.90;;;;;;5041138;28;20031;-76
2021/09/29 02:24:20;;;;;;;11.05;8.13;;;12.00;99.90;;;;;;5026904;28;20056;-76
2021/09/29 02:26:45;;;;;;;12.70;7.82;;;12.10;99.90;;;;;;5014606;28;20026;-76
2021/09/29 02:29:13;;;;;;;11.48;8.15;;;12.10;99.90;;;;;;5031025;28;20029;-77
2021/09/29 02:31:38;;;;;;;12.63;7.90;;;12.10;99.90;;;;;;5027465;28;20033;-77
2021/09/29 02:34:05;;;;;;;11.43;8.98;;;12.20;99.90;;;;;;5041416;28;20056;-76
2021/09/29 02:36:31;;;;;;;12.63;8.70;;;12.20;99.90;;;;;;5055258;28;20433;-77
2021/09/29 02:38:56;;;;;;;11.70;7.75;;;12.00;99.90;;;;;;5024103;28;20479;-77
2021/09/29 02:41:23;;;;;;;13.45;8.27;;;11.90;99.90;;;;;;5026926;28;20471;-77
2021/09/29 02:43:49;;;;;;;11.98;8.73;;;11.80;99.90;;;;;;5034075;28;20029;-77
2021/09/29 02:46:15;;;;;;;12.48;7.93;;;11.70;99.90;;;;;;5043453;28;20025;-77
2021/09/29 02:48:40;;;;;;;10.05;7.13;;;11.70;99.90;;;;;;5030414;28;20032;-78
2021/09/29 02:51:06;;;;;;;10.02;7.35;;;11.80;99.90;;;;;;5028350;28;20029;-77
2021/09/29 02:53:32;;;;;;;11.80;8.35;;;11.90;99.90;;;;;;5041282;28;20541;-77
2021/09/29 02:56:02;;;;;;;11.70;8.50;;;12.10;99.90;;;;;;5036835;28;20024;-77
2021/09/29 02:58:28;;;;;;;14.75;9.27;;;12.00;99.90;;;;;;5036262;28;20022;-77
2021/09/29 03:00:55;;;;;;;16.50;9.75;;;12.00;99.90;;;;;;5046094;28;20497;-77
2021/09/29 03:03:21;;;;;;;13.35;10.40;;;11.90;99.90;;;;;;5049027;28;20021;-77
2021/09/29 03:05:48;;;;;;;11.57;9.75;;;11.90;99.90;;;;;;5046704;28;20100;-77
2021/09/29 03:08:14;;;;;;;10.73;8.02;;;12.00;99.90;;;;;;5023467;28;20025;-77
2021/09/29 03:10:41;;;;;;;8.13;7.28;;;12.10;99.90;;;;;;5036601;28;20021;-76
2021/09/29 03:13:08;;;;;;;10.75;7.65;;;12.20;99.90;;;;;;5017974;28;20017;-77
2021/09/29 03:15:34;;;;;;;9.35;7.43;;;12.30;99.90;;;;;;5046714;28;20119;-76
2021/09/29 03:18:00;;;;;;;12.55;8.65;;;12.40;99.90;;;;;;5040876;28;20568;-77
2021/09/29 03:20:25;;;;;;;10.75;8.10;;;12.40;99.90;;;;;;5024236;28;20021;-76
2021/09/29 03:22:52;;;;;;;15.57;9.05;;;12.40;99.90;;;;;;5047712;28;20522;-75
2021/09/29 03:25:18;;;;;;;14.05;9.80;;;12.30;99.90;;;;;;5046088;28;20033;-76
2021/09/29 03:27:44;;;;;;;14.57;9.75;;;12.10;99.90;;;;;;5040666;28;20021;-75
2021/09/29 03:30:10;;;;;;;11.68;8.77;;;11.90;99.90;;;;;;5042201;28;20033;-72
2021/09/29 03:32:36;;;;;;;14.50;9.75;;;11.80;99.90;;;;;;5029815;28;20072;-74
2021/09/29 03:35:01;;;;;;;15.00;10.75;;;11.80;99.90;;;;;;5045774;28;20029;-74
2021/09/29 03:37:27;;;;;;;13.40;9.52;;;11.70;99.90;;;;;;5022733;28;20418;-74
2021/09/29 03:39:52;;;;;;;16.33;11.15;;;11.50;99.90;;;;;;5024441;28;20021;-74
2021/09/29 03:42:18;;;;;;;16.48;10.65;;;11.60;99.90;;;;;;5020820;28;20028;-75
2021/09/29 03:44:44;;;;;;;17.00;11.35;;;11.70;99.90;;;;;;5053728;28;20025;-76
2021/09/29 03:47:09;;;;;;;16.20;12.13;;;11.70;99.90;;;;;;5040267;28;20479;-76
2021/09/29 03:49:35;;;;;;;19.48;12.82;;;11.60;99.90;;;;;;5024187;28;20040;-75
2021/09/29 03:52:00;;;;;;;14.45;11.20;;;11.50;99.90;;;;;;5029330;28;20654;-76
2021/09/29 03:54:26;;;;;;;16.63;11.10;;;11.80;99.90;;;;;;5045001;28;20035;-74
2021/09/29 03:56:51;;;;;;;18.40;12.18;;;12.00;99.90;;;;;;5031070;28;20067;-75
2021/09/29 03:59:17;;;;;;;18.33;12.85;;;11.90;99.90;;;;;;5028002;28;20033;-75
2021/09/29 04:01:43;;;;;;;20.38;13.02;;;11.80;99.90;;;;;;5022921;28;20383;-76
2021/09/29 04:04:09;;;;;;;17.83;12.60;;;11.90;99.90;;;;;;5041767;28;20029;-76
2021/09/29 04:06:34;;;;;;;13.90;11.45;;;11.90;99.90;;;;;;5033668;28;20029;-76
2021/09/29 04:09:00;;;;;;;14.70;11.63;;;11.90;99.90;;;;;;5053310;28;20029;-76
2021/09/29 04:11:26;;;;;;;18.45;12.48;;;12.10;99.90;;;;;;5022086;28;20029;-75
2021/09/29 04:13:52;;;;;;;20.85;13.63;;;12.10;99.90;;;;;;5044014;28;20036;-76
2021/09/29 04:16:18;;;;;;;18.85;13.65;;;11.90;99.90;;;;;;5034803;28;20021;-76
2021/09/29 04:18:43;;;;;;;12.13;10.10;;;11.80;99.90;;;;;;5044794;28;20524;-77
2021/09/29 04:21:10;;;;;;;18.08;12.65;;;12.00;99.90;;;;;;5021639;28;20017;-75
2021/09/29 04:23:38;;;;;;;19.35;12.68;;;12.00;99.90;;;;;;5023880;28;20030;-76
2021/09/29 04:26:03;;;;;;;16.27;13.07;;;11.70;99.90;;;;;;5046453;28;20095;-76
2021/09/29 04:28:29;;;;;;;21.30;13.90;;;11.70;99.90;;;;;;5044487;28;20502;-76
2021/09/29 04:30:55;;;;;;;15.90;11.57;;;11.60;99.90;;;;;;5030236;28;20026;-74
2021/09/29 04:33:21;;;;;;;21.60;14.00;;;11.60;99.90;;;;;;5032764;28;20045;-74
2021/09/29 04:35:46;;;;;;;21.02;13.95;;;11.60;99.90;;;;;;5028371;28;20483;-75
2021/09/29 04:38:12;;;;;;;19.00;13.55;;;11.50;99.90;;;;;;5043917;28;20415;-73
2021/09/29 04:40:38;;;;;;;21.15;14.15;;;11.60;99.90;;;;;;5017010;28;20032;-74
2021/09/29 04:43:04;;;;;;;20.50;14.43;;;11.60;99.90;;;;;;5032787;28;20024;-76
2021/09/29 04:45:29;;;;;;;20.83;13.65;;;11.60;99.90;;;;;;5020107;28;20031;-75
2021/09/29 04:47:55;;;;;;;22.13;13.80;;;11.70;99.90;;;;;;5023684;28;20097;-76
2021/09/29 04:50:20;;;;;;;18.75;13.13;;;11.90;99.90;;;;;;5027910;28;20112;-73
2021/09/29 04:52:46;;;;;;;22.27;15.38;;;12.00;99.90;;;;;;5032900;28;20034;-74
2021/09/29 04:55:11;;;;;;;23.83;15.23;;;11.90;99.90;;;;;;5046063;28;20029;-75
2021/09/29 04:57:37;;;;;;;21.90;14.30;;;12.00;99.90;;;;;;5044310;28;20379;-76
2021/09/29 05:00:04;;;;;;;16.17;13.07;;;11.90;99.90;;;;;;5047619;28;20034;-75
2021/09/29 05:02:30;;;;;;;17.75;12.93;;;11.90;99.90;;;;;;5014558;28;20499;-76
2021/09/29 05:04:55;;;;;;;21.83;15.38;;;11.90;99.90;;;;;;5044821;28;20034;-76
2021/09/29 05:07:21;;;;;;;21.50;15.95;;;12.10;99.90;;;;;;5043371;28;20474;-75
2021/09/29 05:09:49;;;;;;;22.90;17.90;;;12.00;99.90;;;;;;5015297;28;20025;-75
2021/09/29 05:12:21;;;;;;;18.33;15.32;;;12.00;99.90;;;;;;5013594;28;20406;-74
2021/09/29 05:14:46;;;;;;;17.25;14.68;;;12.10;99.90;;;;;;5045064;28;20471;-74
2021/09/29 05:17:12;;;;;;;21.75;14.75;;;12.10;99.90;;;;;;5044348;28;20092;-75
2021/09/29 05:19:37;;;;;;;22.45;17.05;;;12.20;99.90;;;;;;5037841;28;20087;-77
2021/09/29 05:22:06;;;;;;;50.33;36.75;;;12.20;99.90;;;;;;5020897;28;20014;-74
2021/09/29 05:24:31;;;;;;;83.93;55.90;;;12.10;99.90;;;;;;5026434;28;20029;-75
2021/09/29 05:26:57;;;;;;;143.43;93.93;;;12.10;99.90;;;;;;5013696;28;20120;-75
2021/09/29 05:29:22;;;;;;;67.55;45.63;;;12.00;99.90;;;;;;5044672;28;20088;-75
2021/09/29 05:31:48;;;;;;;41.10;30.05;;;11.90;99.90;;;;;;5033647;28;20064;-75
2021/09/29 05:34:13;;;;;;;47.92;30.70;;;12.00;99.90;;;;;;5026481;28;20021;-75
2021/09/29 05:36:41;;;;;;;31.13;22.70;;;12.10;99.90;;;;;;5031195;28;20100;-74
2021/09/29 05:39:07;;;;;;;22.85;18.13;;;12.20;99.90;;;;;;5026711;28;20021;-74
2021/09/29 05:41:33;;;;;;;79.18;46.95;;;12.30;99.90;;;;;;5044154;28;20063;-75
2021/09/29 05:43:58;;;;;;;28.20;18.20;;;12.10;99.90;;;;;;5026402;28;20061;-73
2021/09/29 05:46:24;;;;;;;23.65;16.70;;;11.90;99.90;;;;;;5043854;28;20029;-75
2021/09/29 05:48:51;;;;;;;24.90;16.33;;;11.80;99.90;;;;;;5037391;28;20033;-74
2021/09/29 05:51:17;;;;;;;22.50;15.27;;;11.90;99.90;;;;;;5020008;28;20025;-74
2021/09/29 05:53:42;;;;;;;22.52;16.13;;;11.80;99.90;;;;;;5044120;28;20041;-75
2021/09/29 05:56:09;;;;;;;23.52;16.50;;;11.90;99.90;;;;;;5043820;28;20033;-75
2021/09/29 05:58:35;;;;;;;26.02;22.17;;;12.00;99.90;;;;;;5019601;28;20036;-75
2021/09/29 06:01:01;;;;;;;25.00;21.35;;;12.00;99.90;;;;;;5037583;28;20100;-74
2021/09/29 06:03:26;;;;;;;25.15;17.17;;;12.10;99.90;;;;;;5011668;28;1026563;-75
2021/09/29 06:05:52;;;;;;;22.40;17.17;;;12.10;99.90;;;;;;5048662;28;20021;-74
2021/09/29 06:08:17;;;;;;;20.92;15.88;;;12.10;99.90;;;;;;5042254;28;20036;-73
2021/09/29 06:10:43;;;;;;;24.13;16.77;;;12.10;99.90;;;;;;5024522;28;20431;-74
2021/09/29 06:13:09;;;;;;;23.98;16.95;;;12.20;99.90;;;;;;5049183;28;20403;-73
2021/09/29 06:15:34;;;;;;;23.33;16.30;;;12.10;99.90;;;;;;5048510;28;20627;-73
2021/09/29 06:18:03;;;;;;;22.77;16.38;;;12.10;99.90;;;;;;5049136;28;20392;-75
2021/09/29 06:20:35;;;;;;;23.30;16.73;;;12.20;99.90;;;;;;5031247;28;20424;-75
2021/09/29 06:23:01;;;;;;;24.02;17.08;;;12.20;99.90;;;;;;5042918;28;20614;-75
2021/09/29 06:25:27;;;;;;;24.23;17.30;;;12.20;99.90;;;;;;5055005;28;20040;-74
2021/09/29 06:27:53;;;;;;;29.40;19.95;;;12.20;99.90;;;;;;5042529;28;20029;-73
2021/09/29 06:30:18;;;;;;;27.80;17.98;;;12.20;99.90;;;;;;5037119;28;20487;-76
2021/09/29 06:32:44;;;;;;;30.48;21.17;;;12.30;99.90;;;;;;5041778;28;20033;-74
2021/09/29 06:35:11;;;;;;;24.55;16.95;;;12.30;99.90;;;;;;5023959;28;20112;-75
2021/09/29 06:37:42;;;;;;;22.58;17.90;;;12.40;99.90;;;;;;5043604;28;20025;-75
2021/09/29 06:40:14;;;;;;;26.02;19.02;;;12.40;99.90;;;;;;5035785;28;20017;-74
2021/09/29 06:42:40;;;;;;;23.20;17.30;;;12.40;99.90;;;;;;5028984;28;20032;-75
2021/09/29 06:45:07;;;;;;;22.08;18.40;;;12.40;99.90;;;;;;5036749;28;20497;-74
2021/09/29 06:47:33;;;;;;;25.05;17.20;;;12.40;99.90;;;;;;5046182;28;20025;-74
2021/09/29 06:50:00;;;;;;;27.90;17.35;;;12.40;99.90;;;;;;5048310;28;20538;-75
2021/09/29 06:52:25;;;;;;;26.10;18.00;;;12.40;99.90;;;;;;5034817;28;20033;-75
2021/09/29 06:54:51;;;;;;;18.52;14.57;;;12.40;99.90;;;;;;5048353;28;20025;-75
2021/09/29 06:57:16;;;;;;;23.35;17.52;;;12.50;99.90;;;;;;5025709;28;20028;-74
2021/09/29 06:59:43;;;;;;;21.23;16.58;;;12.50;99.90;;;;;;5023719;28;20068;-75
2021/09/29 07:02:08;;;;;;;21.65;16.75;;;12.50;99.90;;;;;;5025389;28;20111;-74
2021/09/29 07:04:34;;;;;;;24.20;16.30;;;12.60;99.90;;;;;;5040321;28;20117;-75
2021/09/29 07:07:00;;;;;;;20.67;16.30;;;12.70;99.90;;;;;;5021181;28;20037;-75
2021/09/29 07:09:25;;;;;;;20.02;16.13;;;12.60;99.90;;;;;;5042381;28;20033;-74
2021/09/29 07:11:51;;;;;;;19.63;15.45;;;12.70;99.90;;;;;;5027350;28;20036;-73
2021/09/29 07:14:16;;;;;;;21.50;15.60;;;12.70;99.90;;;;;;5038576;28;20067;-74
2021/09/29 07:16:42;;;;;;;21.33;15.88;;;12.70;99.90;;;;;;5046624;28;20018;-74
2021/09/29 07:19:07;;;;;;;20.63;15.52;;;12.70;99.90;;;;;;5047455;28;20503;-75
2021/09/29 07:21:33;;;;;;;18.50;15.38;;;12.80;99.90;;;;;;5034191;28;20021;-76
2021/09/29 07:23:59;;;;;;;21.92;14.75;;;12.80;99.90;;;;;;5032398;28;20048;-75
2021/09/29 07:26:25;;;;;;;20.13;15.20;;;12.80;99.90;;;;;;5023711;28;20025;-75
2021/09/29 07:28:51;;;;;;;19.23;15.32;;;12.90;99.90;;;;;;5040829;28;20033;-75
2021/09/29 07:31:17;;;;;;;21.27;15.70;;;13.00;99.90;;;;;;5053982;28;20093;-75
2021/09/29 07:33:43;;;;;;;19.42;15.75;;;13.10;99.90;;;;;;5040282;28;20022;-75
2021/09/29 07:36:08;;;;;;;19.98;14.50;;;13.20;99.90;;;;;;5028610;28;20036;-75
2021/09/29 07:38:35;;;;;;;19.58;15.35;;;13.30;99.90;;;;;;5047611;28;20032;-75
2021/09/29 07:41:01;;;;;;;19.45;14.10;;;13.40;99.90;;;;;;5041335;28;20021;-75
2021/09/29 07:43:27;;;;;;;16.83;13.50;;;13.40;99.90;;;;;;5021937;28;20412;-75
2021/09/29 07:45:52;;;;;;;19.20;13.45;;;13.50;99.90;;;;;;5024457;28;20024;-75
2021/09/29 07:48:18;;;;;;;16.70;13.18;;;13.50;99.90;;;;;;5022584;28;20017;-76
2021/09/29 07:50:44;;;;;;;16.00;13.40;;;13.60;99.90;;;;;;5045303;28;20104;-76
2021/09/29 07:53:09;;;;;;;15.18;13.00;;;13.70;99.90;;;;;;5029153;28;20025;-75
2021/09/29 07:55:35;;;;;;;16.08;12.93;;;13.70;99.90;;;;;;5041706;28;20083;-75
2021/09/29 07:58:01;;;;;;;17.95;13.02;;;13.60;99.90;;;;;;5022442;28;20029;-75
2021/09/29 08:00:26;;;;;;;16.33;12.98;;;13.60;99.90;;;;;;5045559;28;20025;-75
2021/09/29 08:02:52;;;;;;;15.43;13.38;;;13.80;99.90;;;;;;5029076;28;20046;-75
2021/09/29 08:05:20;;;;;;;16.83;12.57;;;13.90;99.90;;;;;;5041504;28;20033;-75
2021/09/29 08:07:47;;;;;;;19.20;12.15;;;13.70;99.90;;;;;;5020817;28;20025;-76
2021/09/29 08:10:13;;;;;;;15.55;11.93;;;13.80;99.90;;;;;;5019012;28;20120;-76
2021/09/29 08:12:38;;;;;;;13.95;11.48;;;13.70;99.90;;;;;;5046441;28;20500;-76
2021/09/29 08:15:12;;;;;;;13.48;10.63;;;13.60;99.90;;;;;;5041451;28;20074;-75
2021/09/29 08:17:38;;;;;;;12.50;10.05;;;13.70;99.90;;;;;;5039856;28;20017;-76
2021/09/29 08:20:05;;;;;;;12.48;9.93;;;13.80;99.90;;;;;;5026025;28;20026;-75
2021/09/29 08:22:30;;;;;;;13.27;9.18;;;13.90;99.90;;;;;;5046231;28;20017;-76
2021/09/29 08:28:11;;;;;;;13.90;9.20;;;14.00;99.90;;;;;;5018669;28;20037;-73
2021/09/29 08:33:42;;;;;;;10.32;8.63;;;14.70;99.90;;;;;;5040827;28;20120;-76
2021/09/29 08:39:03;;;;;;;16.52;12.48;;;14.80;99.90;;;;;;5033287;28;20112;-76
2021/09/29 08:44:31;;;;;;;10.77;7.47;;;14.40;99.90;;;;;;5009757;28;20557;-75
2021/09/29 08:47:11;;;;;;;10.73;7.20;;;14.50;99.90;;;;;;5046335;28;20452;-76
2021/09/29 08:57:50;;;;;;;10.77;8.25;;;14.80;99.90;;;;;;5052652;28;20075;-76
2021/09/29 09:16:58;;;;;;;4.75;3.15;;;15.50;99.90;;;;;;5041870;28;20435;-76
2021/09/29 09:19:29;;;;;;;4.07;2.60;;;15.50;99.90;;;;;;5045720;28;20017;-75
2021/09/29 09:22:03;;;;;;;4.30;2.47;;;15.50;99.90;;;;;;5043400;28;20021;-76
2021/09/29 09:24:32;;;;;;;3.22;2.45;;;15.40;99.90;;;;;;5014762;28;20554;-74
2021/09/29 09:27:10;;;;;;;4.97;2.58;;;15.60;99.90;;;;;;5045366;28;20048;-75
2021/09/29 09:29:55;;;;;;;3.67;1.98;;;15.60;99.90;;;;;;5032144;28;20029;-76
2021/09/29 09:32:23;;;;;;;2.88;2.03;;;15.70;99.90;;;;;;5027365;28;20061;-76
2021/09/29 09:35:00;;;;;;;3.13;2.10;;;15.70;99.90;;;;;;5042609;28;20039;-76
2021/09/29 09:37:30;;;;;;;3.83;2.08;;;15.90;99.90;;;;;;5038426;28;20017;-76
2021/09/29 09:40:08;;;;;;;5.25;1.70;;;16.00;99.90;;;;;;5051894;28;20055;-76
2021/09/29 09:42:56;;;;;;;3.15;1.80;;;16.10;99.90;;;;;;5043734;28;20048;-76
2021/09/29 09:45:49;;;;;;;3.97;1.90;;;16.30;99.90;;;;;;5044432;28;20542;-75
2021/09/29 09:48:16;;;;;;;3.20;1.80;;;16.40;99.90;;;;;;5033542;28;20073;-76
2021/09/29 09:50:42;;;;;;;4.22;2.17;;;16.40;99.90;;;;;;5043905;28;20037;-76
2021/09/29 09:53:15;;;;;;;3.33;1.85;;;16.20;99.90;;;;;;5045534;28;20028;-76
2021/09/29 09:55:41;;;;;;;4.47;2.17;;;16.10;99.90;;;;;;5022645;28;20048;-76
2021/09/29 09:58:07;;;;;;;5.80;2.10;;;15.90;99.90;;;;;;5020521;28;20028;-76
2021/09/29 10:00:34;;;;;;;5.47;2.15;;;15.80;99.90;;;;;;5043078;28;20093;-76
2021/09/29 10:03:01;;;;;;;4.68;2.05;;;16.00;99.90;;;;;;5044858;28;20021;-76
2021/09/29 10:05:28;;;;;;;2.78;1.95;;;16.10;99.90;;;;;;5022804;28;20036;-76
2021/09/29 10:07:55;;;;;;;4.45;2.05;;;16.40;99.90;;;;;;5038179;28;20065;-76
2021/09/29 10:10:39;;;;;;;5.30;2.58;;;16.40;99.90;;;;;;5035244;28;20074;-76
2021/09/29 10:27:16;;;;;;;5.03;1.73;;;16.30;99.90;;;;;;5038838;28;20112;-76
2021/09/29 10:29:48;;;;;;;5.00;1.80;;;15.90;99.90;;;;;;5038812;28;20406;-76
2021/09/29 10:32:24;;;;;;;2.03;1.50;;;16.00;99.90;;;;;;5019927;28;20060;-76
2021/09/29 10:35:08;;;;;;;3.80;1.50;;;16.30;99.90;;;;;;5041666;28;20032;-76
2021/09/29 10:40:17;;;;;;;3.97;1.73;;;16.40;99.90;;;;;;5026886;28;20393;-76
2021/09/29 10:46:08;;;;;;;3.95;1.60;;;16.50;99.90;;;;;;5042087;28;20025;-76
2021/09/29 10:48:58;;;;;;;3.85;1.58;;;16.40;99.90;;;;;;5046757;28;20480;-76
2021/09/29 11:29:48;;;;;;;3.83;1.45;;;17.20;99.90;;;;;;5042822;28;20032;-76
2021/09/29 11:32:26;;;;;;;3.40;1.33;;;16.90;99.90;;;;;;5040736;28;20108;-76
2021/09/29 11:34:54;;;;;;;2.83;1.20;;;16.80;99.90;;;;;;5043362;28;20025;-75
2021/09/29 12:10:07;;;;;;;4.47;1.50;;;16.90;99.90;;;;;;5040717;28;20126;-75
2021/09/29 12:12:37;;;;;;;4.07;1.30;;;17.00;99.90;;;;;;5052328;28;20055;-75
2021/09/29 12:15:07;;;;;;;3.40;1.30;;;17.00;99.90;;;;;;5024070;28;20471;-76
2021/09/29 12:17:37;;;;;;;5.80;1.42;;;17.00;99.90;;;;;;5039796;28;20028;-75
2021/09/29 12:20:14;;;;;;;2.28;1.25;;;16.90;99.90;;;;;;5053247;28;20075;-76
2021/09/29 12:22:53;;;;;;;2.75;1.45;;;16.90;99.90;;;;;;5039591;28;20036;-75
2021/09/29 12:25:34;;;;;;;3.80;1.40;;;16.90;99.90;;;;;;5053135;28;20018;-76
2021/09/29 12:28:34;;;;;;;4.57;1.65;;;17.00;99.90;;;;;;5053138;28;20032;-76
2021/09/29 12:36:13;;;;;;;2.67;1.20;;;17.50;99.90;;;;;;5040966;28;20025;-76
2021/09/29 12:38:39;;;;;;;7.03;1.58;;;17.70;99.90;;;;;;5039288;28;20021;-76
2021/09/29 12:41:05;;;;;;;5.75;1.67;;;17.90;99.90;;;;;;5026565;28;20483;-75
2021/09/29 12:43:31;;;;;;;5.22;1.48;;;17.90;99.90;;;;;;5049672;28;20063;-76
2021/09/29 12:45:57;;;;;;;6.50;1.40;;;17.60;99.90;;;;;;5072773;28;20028;-76
2021/09/29 12:48:29;;;;;;;5.25;1.70;;;17.70;99.90;;;;;;5070686;28;20119;-75
2021/09/29 12:50:58;;;;;;;9.32;1.85;;;17.60;99.90;;;;;;5043026;28;20025;-75
2021/09/29 12:56:15;;;;;;;5.35;1.40;;;18.30;99.90;;;;;;5044903;28;20033;-75
2021/09/29 12:58:40;;;;;;;4.70;1.73;;;18.90;99.90;;;;;;5039359;28;20103;-75
2021/09/29 13:01:06;;;;;;;6.50;1.70;;;18.20;99.90;;;;;;5038927;28;20096;-75
2021/09/29 13:03:32;;;;;;;4.35;1.40;;;17.90;99.90;;;;;;5045445;28;20048;-75
2021/09/29 13:05:58;;;;;;;5.57;1.70;;;17.70;99.90;;;;;;5044441;28;20394;-75
2021/09/29 13:08:24;;;;;;;4.10;1.30;;;17.50;99.90;;;;;;5038679;28;20720;-75
2021/09/29 13:10:50;;;;;;;7.13;1.65;;;17.90;99.90;;;;;;5038925;28;20108;-75
2021/09/29 13:13:17;;;;;;;3.78;1.25;;;18.50;99.90;;;;;;5045227;28;20021;-75
2021/09/29 13:15:45;;;;;;;4.38;1.20;;;18.20;99.90;;;;;;5027439;28;20078;-75
2021/09/29 13:21:07;;;;;;;5.10;1.38;;;18.40;99.90;;;;;;5049188;28;20088;-76
2021/09/29 13:23:39;;;;;;;3.92;1.40;;;19.70;99.90;;;;;;5024925;28;20064;-76
2021/09/29 13:37:03;;;;;;;5.45;1.10;;;18.30;99.90;;;;;;5040911;28;20055;-75
2021/09/29 13:39:28;;;;;;;2.97;1.10;;;18.10;99.90;;;;;;5039824;28;20025;-75
2021/09/29 13:41:54;;;;;;;3.33;1.10;;;17.90;99.90;;;;;;5038125;28;20098;-75
2021/09/29 13:44:22;;;;;;;5.32;1.55;;;17.60;99.90;;;;;;5051654;28;20491;-75
2021/09/29 13:46:48;;;;;;;3.33;1.17;;;17.60;99.90;;;;;;5018183;28;20022;-75
2021/09/29 13:49:13;;;;;;;3.05;1.20;;;17.80;99.90;;;;;;5040750;28;20025;-76
2021/09/29 13:51:43;;;;;;;4.18;1.50;;;17.80;99.90;;;;;;5049365;28;20043;-76
2021/09/29 13:54:12;;;;;;;2.90;1.00;;;17.60;99.90;;;;;;5023312;28;20060;-76
2021/09/29 13:56:49;;;;;;;2.33;0.80;;;17.40;99.90;;;;;;5038416;28;20023;-75
2021/09/29 13:59:22;;;;;;;2.80;0.93;;;17.40;99.90;;;;;;5040375;28;20021;-74
2021/09/29 14:28:34;;;;;;;3.03;0.93;;;16.90;99.90;;;;;;5040779;28;20060;-75
2021/09/29 14:29:25;;;;;;;4.60;1.30;;;15.60;99.90;;;;;;5037455;28;20128;-73
2021/09/29 14:34:22;;;;;;;5.13;1.33;;;14.20;99.90;;;;;;5035245;28;20398;-73
2021/09/29 14:36:48;;;;;;;3.80;1.58;;;14.00;99.90;;;;;;5048074;28;20023;-73
2021/09/29 14:39:14;;;;;;;3.90;1.40;;;14.00;99.90;;;;;;5037119;28;20575;-73
2021/09/29 14:41:40;;;;;;;7.60;2.00;;;13.90;99.90;;;;;;5054769;28;20025;-73
2021/09/29 14:44:06;;;;;;;4.13;1.23;;;13.90;99.90;;;;;;5049592;28;20021;-73
2021/09/29 14:46:32;;;;;;;5.13;1.40;;;13.90;99.90;;;;;;5061248;28;20098;-73
2021/09/29 14:48:57;;;;;;;8.50;1.50;;;13.80;99.90;;;;;;5047824;28;20065;-73
2021/09/29 14:51:23;;;;;;;4.00;1.35;;;13.80;99.90;;;;;;5034704;28;20025;-73
2021/09/29 14:53:49;;;;;;;5.85;1.42;;;13.80;99.90;;;;;;5041597;28;20499;-73
2021/09/29 14:56:18;;;;;;;5.93;1.25;;;13.80;99.90;;;;;;5041260;28;20022;-72
2021/09/29 14:58:44;;;;;;;4.13;1.40;;;13.80;99.90;;;;;;5034847;28;20427;-73
2021/09/29 15:01:16;;;;;;;5.28;1.45;;;14.00;99.90;;;;;;5035047;28;20027;-73
2021/09/29 15:03:42;;;;;;;5.05;1.70;;;14.10;99.90;;;;;;5024807;28;20029;-73
2021/09/29 15:06:08;;;;;;;3.95;1.38;;;14.00;99.90;;;;;;5039831;28;20021;-73
2021/09/29 15:08:36;;;;;;;3.88;1.20;;;13.80;99.90;;;;;;5016750;28;20083;-73
2021/09/29 15:11:03;;;;;;;6.35;1.30;;;13.80;99.90;;;;;;5034233;28;20104;-73
2021/09/29 15:13:32;;;;;;;3.38;1.73;;;13.70;99.90;;;;;;5034329;28;20676;-73
2021/09/29 15:16:08;;;;;;;3.33;1.70;;;13.80;99.90;;;;;;5036391;28;20021;-73
2021/09/29 15:18:40;;;;;;;4.47;1.70;;;14.20;99.90;;;;;;5026494;28;20029;-73
2021/09/29 15:21:23;;;;;;;6.75;2.10;;;14.30;99.90;;;;;;5029795;28;20021;-73
2021/09/29 15:32:06;;;;;;;3.30;1.05;;;14.00;99.90;;;;;;5034118;28;20079;-73
2021/09/29 15:48:20;;;;;;;1.20;0.73;;;13.60;99.90;;;;;;5039408;28;20128;-72
2021/09/29 15:50:51;;;;;;;1.23;0.88;;;13.40;99.90;;;;;;5025977;28;20025;-72
2021/09/29 15:56:06;;;;;;;2.63;0.77;;;13.20;99.90;;;;;;5059693;28;20027;-75
2021/09/29 16:01:13;;;;;;;2.35;1.00;;;13.10;99.90;;;;;;5054252;28;20033;-75
2021/09/29 16:03:49;;;;;;;1.05;0.77;;;13.20;99.90;;;;;;5044553;28;20058;-74